sensor_id;sensor_type;location;lat;lon;timestamp;pressure;altitude;pressure_sealevel;temperature;humidity
46682;BME280;34101;53.430;-2.224;2022-12-24T00:01:09;154350.27;;;7.53;100.00
46682;BME280;34101;53.430;-2.224;2022-12-24T00:03:37;154338.17;;;7.48;100.00
46682;BME280;34101;53.430;-2.224;2022-12-24T00:06:06;154348.01;;;7.52;100.00
46682;BME280;34101;53.430;-2.224;2022-12-24T00:08:33;154369.07;;;7.60;100.00
46682;BME280;34101;53.430;-2.224;2022-12-24T00:11:00;154389.97;;;7.69;100.00
46682;BME280;34101;53.430;-2.224;2022-12-24T00:13:28;154404.98;;;7.75;100.00
46682;BME280;34101;53.430;-2.224;2022-12-24T00:15:56;154425.23;;;7.83;100.00
46682;BME280;34101;53.430;-2.224;2022-12-24T00:18:23;154450.01;;;7.93;100.00
46682;BME280;34101;53.430;-2.224;2022-12-24T00:20:51;154477.77;;;8.04;100.00
46682;BME280;34101;53.430;-2.224;2022-12-24T00:23:19;154502.31;;;8.14;100.00
46682;BME280;34101;53.430;-2.224;2022-12-24T00:25:46;154497.71;;;8.12;100.00
46682;BME280;34101;53.430;-2.224;2022-12-24T00:28:15;154477.45;;;8.04;100.00
46682;BME280;34101;53.430;-2.224;2022-12-24T00:30:42;154451.06;;;7.93;100.00
46682;BME280;34101;53.430;-2.224;2022-12-24T00:33:10;154521.12;;;8.22;100.00
46682;BME280;34101;53.430;-2.224;2022-12-24T00:35:39;154460.99;;;7.97;100.00
46682;BME280;34101;53.430;-2.224;2022-12-24T00:38:07;154472.20;;;8.02;100.00
46682;BME280;34101;53.430;-2.224;2022-12-24T00:40:34;154476.56;;;8.04;100.00
46682;BME280;34101;53.430;-2.224;2022-12-24T00:43:02;154432.98;;;7.86;100.00
46682;BME280;34101;53.430;-2.224;2022-12-24T00:45:29;154426.52;;;7.84;100.00
46682;BME280;34101;53.430;-2.224;2022-12-24T00:47:57;154398.68;;;7.72;100.00
46682;BME280;34101;53.430;-2.224;2022-12-24T00:50:24;154386.66;;;7.67;100.00
46682;BME280;34101;53.430;-2.224;2022-12-24T00:52:52;154418.78;;;7.80;100.00
46682;BME280;34101;53.430;-2.224;2022-12-24T00:55:19;154409.90;;;7.77;100.00
46682;BME280;34101;53.430;-2.224;2022-12-24T00:57:46;154427.65;;;7.84;100.00
46682;BME280;34101;53.430;-2.224;2022-12-24T01:00:14;154422.65;;;7.82;100.00
46682;BME280;34101;53.430;-2.224;2022-12-24T01:02:41;154413.37;;;7.78;100.00
46682;BME280;34101;53.430;-2.224;2022-12-24T01:05:09;154425.88;;;7.83;100.00
46682;BME280;34101;53.430;-2.224;2022-12-24T01:07:38;154444.04;;;7.91;100.00
46682;BME280;34101;53.430;-2.224;2022-12-24T01:10:07;154447.83;;;7.92;100.00
46682;BME280;34101;53.430;-2.224;2022-12-24T01:12:35;154428.70;;;7.84;100.00
46682;BME280;34101;53.430;-2.224;2022-12-24T01:15:03;154424.91;;;7.83;100.00
46682;BME280;34101;53.430;-2.224;2022-12-24T01:17:30;154396.26;;;7.71;100.00
46682;BME280;34101;53.430;-2.224;2022-12-24T01:19:57;154442.26;;;7.90;100.00
46682;BME280;34101;53.430;-2.224;2022-12-24T01:22:25;154464.78;;;7.99;100.00
46682;BME280;34101;53.430;-2.224;2022-12-24T01:24:53;154479.15;;;8.05;100.00
46682;BME280;34101;53.430;-2.224;2022-12-24T01:27:20;154487.86;;;8.08;100.00
46682;BME280;34101;53.430;-2.224;2022-12-24T01:29:47;154470.51;;;8.01;100.00
46682;BME280;34101;53.430;-2.224;2022-12-24T01:32:15;154492.06;;;8.10;100.00
46682;BME280;34101;53.430;-2.224;2022-12-24T01:34:42;154496.82;;;8.12;100.00
46682;BME280;34101;53.430;-2.224;2022-12-24T01:37:09;154441.78;;;7.90;100.00
46682;BME280;34101;53.430;-2.224;2022-12-24T01:39:36;154460.26;;;7.97;100.00
46682;BME280;34101;53.430;-2.224;2022-12-24T01:42:15;154496.26;;;8.12;100.00
46682;BME280;34101;53.430;-2.224;2022-12-24T01:44:47;154493.67;;;8.11;100.00
46682;BME280;34101;53.430;-2.224;2022-12-24T01:47:18;154490.20;;;8.09;100.00
46682;BME280;34101;53.430;-2.224;2022-12-24T01:49:50;154457.84;;;7.96;100.00
46682;BME280;34101;53.430;-2.224;2022-12-24T01:52:21;154473.66;;;8.03;100.00
46682;BME280;34101;53.430;-2.224;2022-12-24T01:54:52;154454.93;;;7.95;100.00
46682;BME280;34101;53.430;-2.224;2022-12-24T01:57:25;154440.24;;;7.89;100.00
46682;BME280;34101;53.430;-2.224;2022-12-24T01:59:57;154384.48;;;7.67;100.00
46682;BME280;34101;53.430;-2.224;2022-12-24T02:02:26;154424.59;;;7.83;100.00
46682;BME280;34101;53.430;-2.224;2022-12-24T02:04:58;154424.02;;;7.83;100.00
46682;BME280;34101;53.430;-2.224;2022-12-24T02:07:27;154394.49;;;7.71;100.00
46682;BME280;34101;53.430;-2.224;2022-12-24T02:09:57;154396.91;;;7.72;100.00
46682;BME280;34101;53.430;-2.224;2022-12-24T02:12:27;154432.74;;;7.86;100.00
46682;BME280;34101;53.430;-2.224;2022-12-24T02:14:55;154424.91;;;7.83;100.00
46682;BME280;34101;53.430;-2.224;2022-12-24T02:17:28;154460.42;;;7.97;100.00
46682;BME280;34101;53.430;-2.224;2022-12-24T02:20:49;154412.08;;;7.78;100.00
46682;BME280;34101;53.430;-2.224;2022-12-24T02:23:37;154432.98;;;7.86;100.00
46682;BME280;34101;53.430;-2.224;2022-12-24T02:26:22;154473.82;;;8.03;100.00
46682;BME280;34101;53.430;-2.224;2022-12-24T02:29:06;154504.65;;;8.15;100.00
46682;BME280;34101;53.430;-2.224;2022-12-24T02:31:42;154473.66;;;8.03;100.00
46682;BME280;34101;53.430;-2.224;2022-12-24T02:34:15;154499.41;;;8.13;100.00
46682;BME280;34101;53.430;-2.224;2022-12-24T02:36:50;154496.18;;;8.12;100.00
46682;BME280;34101;53.430;-2.224;2022-12-24T02:39:25;154456.22;;;7.96;100.00
46682;BME280;34101;53.430;-2.224;2022-12-24T02:41:55;154412.72;;;7.78;100.00
46682;BME280;34101;53.430;-2.224;2022-12-24T02:44:27;154403.69;;;7.74;100.00
46682;BME280;34101;53.430;-2.224;2022-12-24T02:46:56;154385.53;;;7.67;100.00
46682;BME280;34101;53.430;-2.224;2022-12-24T02:49:25;154426.93;;;7.84;100.00
46682;BME280;34101;53.430;-2.224;2022-12-24T02:51:52;154443.79;;;7.91;100.00
46682;BME280;34101;53.430;-2.224;2022-12-24T02:54:19;154440.81;;;7.89;100.00
46682;BME280;34101;53.430;-2.224;2022-12-24T02:56:58;154460.74;;;7.97;100.00
46682;BME280;34101;53.430;-2.224;2022-12-24T02:59:47;154447.91;;;7.92;100.00
46682;BME280;34101;53.430;-2.224;2022-12-24T03:02:25;154455.58;;;7.95;100.00
46682;BME280;34101;53.430;-2.224;2022-12-24T03:05:11;154458.00;;;7.96;100.00
46682;BME280;34101;53.430;-2.224;2022-12-24T03:07:44;154496.82;;;8.12;100.00
46682;BME280;34101;53.430;-2.224;2022-12-24T03:10:20;154480.92;;;8.05;100.00
46682;BME280;34101;53.430;-2.224;2022-12-24T03:12:54;154438.31;;;7.88;100.00
46682;BME280;34101;53.430;-2.224;2022-12-24T03:15:24;154425.56;;;7.83;100.00
46682;BME280;34101;53.430;-2.224;2022-12-24T03:17:56;154414.02;;;7.78;100.00
46682;BME280;34101;53.430;-2.224;2022-12-24T03:20:26;154436.45;;;7.88;100.00
46682;BME280;34101;53.430;-2.224;2022-12-24T03:22:57;154444.12;;;7.91;100.00
46682;BME280;34101;53.430;-2.224;2022-12-24T03:25:26;154398.12;;;7.72;100.00
46682;BME280;34101;53.430;-2.224;2022-12-24T03:27:55;154386.98;;;7.68;100.00
46682;BME280;34101;53.430;-2.224;2022-12-24T03:30:23;154381.82;;;7.66;100.00
46682;BME280;34101;53.430;-2.224;2022-12-24T03:32:52;154349.06;;;7.52;100.00
46682;BME280;34101;53.430;-2.224;2022-12-24T03:35:19;154372.13;;;7.62;100.00
46682;BME280;34101;53.430;-2.224;2022-12-24T03:37:49;154345.27;;;7.51;100.00
46682;BME280;34101;53.430;-2.224;2022-12-24T03:40:17;154355.92;;;7.55;100.00
46682;BME280;34101;53.430;-2.224;2022-12-24T03:42:45;154380.77;;;7.65;100.00
46682;BME280;34101;53.430;-2.224;2022-12-24T03:45:13;154396.42;;;7.71;100.00
46682;BME280;34101;53.430;-2.224;2022-12-24T03:47:42;154391.18;;;7.69;100.00
46682;BME280;34101;53.430;-2.224;2022-12-24T03:50:09;154376.09;;;7.63;100.00
46682;BME280;34101;53.430;-2.224;2022-12-24T03:52:36;154366.00;;;7.59;100.00
46682;BME280;34101;53.430;-2.224;2022-12-24T03:55:05;154360.03;;;7.57;100.00
46682;BME280;34101;53.430;-2.224;2022-12-24T03:57:32;154366.32;;;7.59;100.00
46682;BME280;34101;53.430;-2.224;2022-12-24T03:59:59;154375.52;;;7.63;100.00
46682;BME280;34101;53.430;-2.224;2022-12-24T04:02:27;154361.24;;;7.57;100.00
46682;BME280;34101;53.430;-2.224;2022-12-24T04:04:54;154327.43;;;7.44;100.00
46682;BME280;34101;53.430;-2.224;2022-12-24T04:07:21;154328.32;;;7.44;100.00
46682;BME280;34101;53.430;-2.224;2022-12-24T04:09:49;154317.27;;;7.39;100.00
46682;BME280;34101;53.430;-2.224;2022-12-24T04:12:17;154305.01;;;7.35;100.00
46682;BME280;34101;53.430;-2.224;2022-12-24T04:14:44;154276.29;;;7.23;100.00
46682;BME280;34101;53.430;-2.224;2022-12-24T04:17:12;154238.29;;;7.08;100.00
46682;BME280;34101;53.430;-2.224;2022-12-24T04:19:40;154273.87;;;7.22;100.00
46682;BME280;34101;53.430;-2.224;2022-12-24T04:22:07;154280.16;;;7.24;100.00
46682;BME280;34101;53.430;-2.224;2022-12-24T04:24:34;154260.39;;;7.16;100.00
46682;BME280;34101;53.430;-2.224;2022-12-24T04:27:02;154262.25;;;7.17;100.00
46682;BME280;34101;53.430;-2.224;2022-12-24T04:29:29;154256.60;;;7.15;100.00
46682;BME280;34101;53.430;-2.224;2022-12-24T04:31:58;154233.37;;;7.06;100.00
46682;BME280;34101;53.430;-2.224;2022-12-24T04:34:26;154212.24;;;6.97;100.00
46682;BME280;34101;53.430;-2.224;2022-12-24T04:36:54;154185.30;;;6.86;100.00
46682;BME280;34101;53.430;-2.224;2022-12-24T04:39:22;154202.56;;;6.93;100.00
46682;BME280;34101;53.430;-2.224;2022-12-24T04:41:50;154171.67;;;6.81;100.00
46682;BME280;34101;53.430;-2.224;2022-12-24T04:44:17;154169.41;;;6.80;100.00
46682;BME280;34101;53.430;-2.224;2022-12-24T04:46:44;154154.49;;;6.74;100.00
46682;BME280;34101;53.430;-2.224;2022-12-24T04:49:12;154166.75;;;6.79;100.00
46682;BME280;34101;53.430;-2.224;2022-12-24T04:51:39;154156.75;;;6.75;100.00
46682;BME280;34101;53.430;-2.224;2022-12-24T04:54:06;154156.03;;;6.74;100.00
46682;BME280;34101;53.430;-2.224;2022-12-24T04:56:34;154156.59;;;6.75;100.00
46682;BME280;34101;53.430;-2.224;2022-12-24T04:59:01;154170.62;;;6.80;100.00
46682;BME280;34101;53.430;-2.224;2022-12-24T05:01:31;154173.45;;;6.81;100.00
46682;BME280;34101;53.430;-2.224;2022-12-24T05:03:59;154181.11;;;6.84;100.00
46682;BME280;34101;53.430;-2.224;2022-12-24T05:06:30;154174.25;;;6.82;100.00
46682;BME280;34101;53.430;-2.224;2022-12-24T05:08:58;154177.32;;;6.83;100.00
46682;BME280;34101;53.430;-2.224;2022-12-24T05:11:26;154177.80;;;6.83;100.00
46682;BME280;34101;53.430;-2.224;2022-12-24T05:13:54;154174.41;;;6.82;100.00
46682;BME280;34101;53.430;-2.224;2022-12-24T05:16:22;154160.38;;;6.76;100.00
46682;BME280;34101;53.430;-2.224;2022-12-24T05:18:50;154152.64;;;6.73;100.00
46682;BME280;34101;53.430;-2.224;2022-12-24T05:21:20;154133.61;;;6.65;100.00
46682;BME280;34101;53.430;-2.224;2022-12-24T05:23:48;154146.99;;;6.71;100.00
46682;BME280;34101;53.430;-2.224;2022-12-24T05:26:17;154145.54;;;6.70;100.00
46682;BME280;34101;53.430;-2.224;2022-12-24T05:28:47;154141.75;;;6.69;100.00
46682;BME280;34101;53.430;-2.224;2022-12-24T05:31:14;154122.72;;;6.61;100.00
46682;BME280;34101;53.430;-2.224;2022-12-24T05:33:41;154133.20;;;6.65;100.00
46682;BME280;34101;53.430;-2.224;2022-12-24T05:36:09;154139.41;;;6.68;100.00
46682;BME280;34101;53.430;-2.224;2022-12-24T05:38:36;154133.85;;;6.65;100.00
46682;BME280;34101;53.430;-2.224;2022-12-24T05:41:04;154128.61;;;6.63;100.00
46682;BME280;34101;53.430;-2.224;2022-12-24T05:43:32;154122.48;;;6.61;100.00
46682;BME280;34101;53.430;-2.224;2022-12-24T05:46:00;154113.93;;;6.57;100.00
46682;BME280;34101;53.430;-2.224;2022-12-24T05:48:28;154106.92;;;6.55;100.00
46682;BME280;34101;53.430;-2.224;2022-12-24T05:50:55;154105.06;;;6.54;100.00
46682;BME280;34101;53.430;-2.224;2022-12-24T05:53:22;154105.79;;;6.54;100.00
46682;BME280;34101;53.430;-2.224;2022-12-24T05:55:50;154080.71;;;6.44;100.00
46682;BME280;34101;53.430;-2.224;2022-12-24T05:58:17;154088.21;;;6.47;100.00
46682;BME280;34101;53.430;-2.224;2022-12-24T06:00:44;154079.42;;;6.43;100.00
46682;BME280;34101;53.430;-2.224;2022-12-24T06:03:12;154055.56;;;6.34;100.00
46682;BME280;34101;53.430;-2.224;2022-12-24T06:05:39;154062.73;;;6.37;100.00
46682;BME280;34101;53.430;-2.224;2022-12-24T06:08:07;154073.94;;;6.41;100.00
46682;BME280;34101;53.430;-2.224;2022-12-24T06:10:34;154081.92;;;6.44;100.00
46682;BME280;34101;53.430;-2.224;2022-12-24T06:13:01;154083.53;;;6.45;100.00
46682;BME280;34101;53.430;-2.224;2022-12-24T06:15:29;154071.76;;;6.40;100.00
46682;BME280;34101;53.430;-2.224;2022-12-24T06:17:56;154077.81;;;6.43;100.00
46682;BME280;34101;53.430;-2.224;2022-12-24T06:20:24;154084.34;;;6.45;100.00
46682;BME280;34101;53.430;-2.224;2022-12-24T06:22:52;154086.68;;;6.46;100.00
46682;BME280;34101;53.430;-2.224;2022-12-24T06:25:19;154078.70;;;6.43;100.00
46682;BME280;34101;53.430;-2.224;2022-12-24T06:27:47;154078.86;;;6.43;100.00
46682;BME280;34101;53.430;-2.224;2022-12-24T06:30:15;154075.39;;;6.42;100.00
46682;BME280;34101;53.430;-2.224;2022-12-24T06:32:42;154074.34;;;6.41;100.00
46682;BME280;34101;53.430;-2.224;2022-12-24T06:35:09;154072.25;;;6.41;100.00
46682;BME280;34101;53.430;-2.224;2022-12-24T06:37:37;154067.81;;;6.39;100.00
46682;BME280;34101;53.430;-2.224;2022-12-24T06:40:05;154067.89;;;6.39;100.00
46682;BME280;34101;53.430;-2.224;2022-12-24T06:42:32;154060.39;;;6.36;100.00
46682;BME280;34101;53.430;-2.224;2022-12-24T06:45:00;154054.67;;;6.33;100.00
46682;BME280;34101;53.430;-2.224;2022-12-24T06:47:27;154044.83;;;6.29;100.00
46682;BME280;34101;53.430;-2.224;2022-12-24T06:49:54;154037.50;;;6.26;100.00
46682;BME280;34101;53.430;-2.224;2022-12-24T06:52:22;154034.92;;;6.25;100.00
46682;BME280;34101;53.430;-2.224;2022-12-24T06:54:50;154033.95;;;6.25;100.00
46682;BME280;34101;53.430;-2.224;2022-12-24T06:57:17;154031.29;;;6.24;100.00
46682;BME280;34101;53.430;-2.224;2022-12-24T06:59:44;154030.48;;;6.24;100.00
46682;BME280;34101;53.430;-2.224;2022-12-24T07:02:11;154029.11;;;6.23;100.00
46682;BME280;34101;53.430;-2.224;2022-12-24T07:04:39;154026.86;;;6.22;100.00
46682;BME280;34101;53.430;-2.224;2022-12-24T07:07:06;154008.80;;;6.15;100.00
46682;BME280;34101;53.430;-2.224;2022-12-24T07:09:34;154014.52;;;6.17;100.00
46682;BME280;34101;53.430;-2.224;2022-12-24T07:12:01;154021.62;;;6.20;100.00
46682;BME280;34101;53.430;-2.224;2022-12-24T07:14:28;154024.28;;;6.21;100.00
46682;BME280;34101;53.430;-2.224;2022-12-24T07:16:56;154013.96;;;6.17;100.00
46682;BME280;34101;53.430;-2.224;2022-12-24T07:19:23;154019.52;;;6.19;100.00
46682;BME280;34101;53.430;-2.224;2022-12-24T07:21:51;154008.88;;;6.15;100.00
46682;BME280;34101;53.430;-2.224;2022-12-24T07:24:18;154011.62;;;6.16;100.00
46682;BME280;34101;53.430;-2.224;2022-12-24T07:26:45;154008.07;;;6.15;100.00
46682;BME280;34101;53.430;-2.224;2022-12-24T07:29:13;153981.39;;;6.04;100.00
46682;BME280;34101;53.430;-2.224;2022-12-24T07:31:40;153989.69;;;6.07;100.00
46682;BME280;34101;53.430;-2.224;2022-12-24T07:34:07;154002.19;;;6.12;100.00
46682;BME280;34101;53.430;-2.224;2022-12-24T07:36:35;153982.60;;;6.04;100.00
46682;BME280;34101;53.430;-2.224;2022-12-24T07:39:02;153960.03;;;5.95;100.00
46682;BME280;34101;53.430;-2.224;2022-12-24T07:41:29;153952.62;;;5.92;100.00
46682;BME280;34101;53.430;-2.224;2022-12-24T07:43:57;153985.26;;;6.05;100.00
46682;BME280;34101;53.430;-2.224;2022-12-24T07:46:24;153991.63;;;6.08;100.00
46682;BME280;34101;53.430;-2.224;2022-12-24T07:48:52;153992.11;;;6.08;100.00
46682;BME280;34101;53.430;-2.224;2022-12-24T07:51:19;153983.73;;;6.05;100.00
46682;BME280;34101;53.430;-2.224;2022-12-24T07:53:46;154033.87;;;6.25;100.00
46682;BME280;34101;53.430;-2.224;2022-12-24T07:56:14;154044.59;;;6.29;100.00
46682;BME280;34101;53.430;-2.224;2022-12-24T07:58:42;154083.21;;;6.45;100.00
46682;BME280;34101;53.430;-2.224;2022-12-24T08:01:09;154067.09;;;6.38;100.00
46682;BME280;34101;53.430;-2.224;2022-12-24T08:03:37;154074.18;;;6.41;100.00
46682;BME280;34101;53.430;-2.224;2022-12-24T08:06:05;154071.84;;;6.40;100.00
46682;BME280;34101;53.430;-2.224;2022-12-24T08:08:33;154138.12;;;6.67;100.00
46682;BME280;34101;53.430;-2.224;2022-12-24T08:11:02;154184.49;;;6.86;100.00
46682;BME280;34101;53.430;-2.224;2022-12-24T08:13:30;154207.08;;;6.95;100.00
46682;BME280;34101;53.430;-2.224;2022-12-24T08:15:57;154229.74;;;7.04;100.00
46682;BME280;34101;53.430;-2.224;2022-12-24T08:18:25;154217.48;;;6.99;100.00
46682;BME280;34101;53.430;-2.224;2022-12-24T08:20:52;154183.45;;;6.85;100.00
46682;BME280;34101;53.430;-2.224;2022-12-24T08:23:19;154166.19;;;6.78;100.00
46682;BME280;34101;53.430;-2.224;2022-12-24T08:25:47;154116.51;;;6.58;100.00
46682;BME280;34101;53.430;-2.224;2022-12-24T08:28:16;154109.09;;;6.55;100.00
46682;BME280;34101;53.430;-2.224;2022-12-24T08:30:46;154102.48;;;6.53;100.00
46682;BME280;34101;53.430;-2.224;2022-12-24T08:33:14;154073.86;;;6.41;100.00
46682;BME280;34101;53.430;-2.224;2022-12-24T08:35:46;154079.34;;;6.43;100.00
46682;BME280;34101;53.430;-2.224;2022-12-24T08:38:14;154063.46;;;6.37;100.00
46682;BME280;34101;53.430;-2.224;2022-12-24T08:40:41;154081.92;;;6.44;100.00
46682;BME280;34101;53.430;-2.224;2022-12-24T08:43:09;154084.90;;;6.46;100.00
46682;BME280;34101;53.430;-2.224;2022-12-24T08:45:38;154084.26;;;6.45;100.00
46682;BME280;34101;53.430;-2.224;2022-12-24T08:48:06;154091.11;;;6.48;100.00
46682;BME280;34101;53.430;-2.224;2022-12-24T08:50:32;154083.69;;;6.45;100.00
46682;BME280;34101;53.430;-2.224;2022-12-24T08:53:00;154084.50;;;6.45;100.00
46682;BME280;34101;53.430;-2.224;2022-12-24T08:55:27;154085.79;;;6.46;100.00
46682;BME280;34101;53.430;-2.224;2022-12-24T08:57:55;154088.61;;;6.47;100.00
46682;BME280;34101;53.430;-2.224;2022-12-24T09:00:25;154085.23;;;6.46;100.00
46682;BME280;34101;53.430;-2.224;2022-12-24T09:02:53;154082.16;;;6.45;100.00
46682;BME280;34101;53.430;-2.224;2022-12-24T09:05:20;154088.85;;;6.47;100.00
46682;BME280;34101;53.430;-2.224;2022-12-24T09:07:47;154096.84;;;6.50;100.00
46682;BME280;34101;53.430;-2.224;2022-12-24T09:10:15;154102.16;;;6.53;100.00
46682;BME280;34101;53.430;-2.224;2022-12-24T09:12:42;154114.09;;;6.57;100.00
46682;BME280;34101;53.430;-2.224;2022-12-24T09:15:10;154146.83;;;6.71;100.00
46682;BME280;34101;53.430;-2.224;2022-12-24T09:17:37;154183.77;;;6.86;100.00
46682;BME280;34101;53.430;-2.224;2022-12-24T09:20:05;154196.91;;;6.91;100.00
46682;BME280;34101;53.430;-2.224;2022-12-24T09:22:33;154253.38;;;7.14;100.00
46682;BME280;34101;53.430;-2.224;2022-12-24T09:25:02;154278.46;;;7.24;100.00
46682;BME280;34101;53.430;-2.224;2022-12-24T09:27:29;154376.01;;;7.63;100.00
46682;BME280;34101;53.430;-2.224;2022-12-24T09:29:56;154457.84;;;7.96;100.00
46682;BME280;34101;53.430;-2.224;2022-12-24T09:32:23;154542.11;;;8.30;100.00
46682;BME280;34101;53.430;-2.224;2022-12-24T09:34:51;154623.33;;;8.63;100.00
46682;BME280;34101;53.430;-2.224;2022-12-24T09:37:18;154714.50;;;9.00;100.00
46682;BME280;34101;53.430;-2.224;2022-12-24T09:39:46;154761.18;;;9.19;100.00
46682;BME280;34101;53.430;-2.224;2022-12-24T09:42:21;154792.69;;;9.31;100.00
46682;BME280;34101;53.430;-2.224;2022-12-24T09:44:57;154781.13;;;9.27;100.00
46682;BME280;34101;53.430;-2.224;2022-12-24T09:47:28;154873.88;;;9.64;100.00
46682;BME280;34101;53.430;-2.224;2022-12-24T09:50:01;154853.03;;;9.56;100.00
46682;BME280;34101;53.430;-2.224;2022-12-24T09:52:34;154767.56;;;9.21;100.00
46682;BME280;34101;53.430;-2.224;2022-12-24T09:55:06;154842.69;;;9.51;100.00
46682;BME280;34101;53.430;-2.224;2022-12-24T09:57:42;154861.76;;;9.59;100.00
46682;BME280;34101;53.430;-2.224;2022-12-24T10:00:18;154778.47;;;9.25;100.00
46682;BME280;34101;53.430;-2.224;2022-12-24T10:02:47;154798.10;;;9.33;100.00
46682;BME280;34101;53.430;-2.224;2022-12-24T10:05:15;154777.01;;;9.25;100.00
46682;BME280;34101;53.430;-2.224;2022-12-24T10:07:48;154900.22;;;9.75;100.00
46682;BME280;34101;53.430;-2.224;2022-12-24T10:10:23;154910.88;;;9.79;100.00
46682;BME280;34101;53.430;-2.224;2022-12-24T10:13:01;154909.83;;;9.78;100.00
46682;BME280;34101;53.430;-2.224;2022-12-24T10:15:35;154801.01;;;9.35;100.00
46682;BME280;34101;53.430;-2.224;2022-12-24T10:18:16;154913.55;;;9.80;100.00
46682;BME280;34101;53.430;-2.224;2022-12-24T10:20:52;155030.82;;;10.27;100.00
46682;BME280;34101;53.430;-2.224;2022-12-24T10:23:27;155047.22;;;10.34;100.00
46682;BME280;34101;53.430;-2.224;2022-12-24T10:26:07;155108.82;;;10.59;100.00
46682;BME280;34101;53.430;-2.224;2022-12-24T10:28:44;155211.02;;;11.00;100.00
46682;BME280;34101;53.430;-2.224;2022-12-24T10:31:13;155145.45;;;10.73;100.00
46682;BME280;34101;53.430;-2.224;2022-12-24T10:33:42;155081.01;;;10.47;100.00
46682;BME280;34101;53.430;-2.224;2022-12-24T10:36:14;155225.09;;;11.05;100.00
46682;BME280;34101;53.430;-2.224;2022-12-24T10:38:42;155216.76;;;11.02;100.00
46682;BME280;34101;53.430;-2.224;2022-12-24T10:41:10;155242.24;;;11.12;100.00
46682;BME280;34101;53.430;-2.224;2022-12-24T10:43:40;155204.80;;;10.97;100.00
46682;BME280;34101;53.430;-2.224;2022-12-24T10:46:16;155303.14;;;11.37;100.00
46682;BME280;34101;53.430;-2.224;2022-12-24T10:48:50;155251.62;;;11.16;100.00
46682;BME280;34101;53.430;-2.224;2022-12-24T10:51:23;155190.81;;;10.92;100.00
46682;BME280;34101;53.430;-2.224;2022-12-24T10:53:58;155265.45;;;11.22;100.00
46682;BME280;34101;53.430;-2.224;2022-12-24T10:56:27;155138.90;;;10.71;100.00
46682;BME280;34101;53.430;-2.224;2022-12-24T10:58:54;155102.52;;;10.56;100.00
46682;BME280;34101;53.430;-2.224;2022-12-24T11:01:41;155146.34;;;10.74;100.00
46682;BME280;34101;53.430;-2.224;2022-12-24T11:04:15;155073.09;;;10.44;100.00
46682;BME280;34101;53.430;-2.224;2022-12-24T11:06:52;154964.70;;;10.01;100.00
46682;BME280;34101;53.430;-2.224;2022-12-24T11:09:22;155036.39;;;10.29;100.00
46682;BME280;34101;53.430;-2.224;2022-12-24T11:11:51;155051.43;;;10.35;100.00
46682;BME280;34101;53.430;-2.224;2022-12-24T11:14:19;155096.94;;;10.54;100.00
46682;BME280;34101;53.430;-2.224;2022-12-24T11:16:51;155085.78;;;10.49;100.00
46682;BME280;34101;53.430;-2.224;2022-12-24T11:19:25;155060.48;;;10.39;100.00
46682;BME280;34101;53.430;-2.224;2022-12-24T11:22:01;155061.45;;;10.40;100.00
46682;BME280;34101;53.430;-2.224;2022-12-24T11:24:31;155076.49;;;10.46;100.00
46682;BME280;34101;53.430;-2.224;2022-12-24T11:27:38;155010.37;;;10.19;100.00
46682;BME280;34101;53.430;-2.224;2022-12-24T11:30:39;155189.59;;;10.91;100.00
46682;BME280;34101;53.430;-2.224;2022-12-24T11:33:17;154994.93;;;10.13;100.00
46682;BME280;34101;53.430;-2.224;2022-12-24T11:35:48;155065.57;;;10.41;100.00
46682;BME280;34101;53.430;-2.224;2022-12-24T11:38:19;155164.85;;;10.81;100.00
46682;BME280;34101;53.430;-2.224;2022-12-24T11:40:49;155251.70;;;11.16;100.00
46682;BME280;34101;53.430;-2.224;2022-12-24T11:43:19;155220.89;;;11.04;100.00
46682;BME280;34101;53.430;-2.224;2022-12-24T11:45:49;155313.09;;;11.41;100.00
46682;BME280;34101;53.430;-2.224;2022-12-24T11:48:33;155238.36;;;11.11;100.00
46682;BME280;34101;53.430;-2.224;2022-12-24T11:51:03;155239.65;;;11.11;100.00
46682;BME280;34101;53.430;-2.224;2022-12-24T11:53:37;155212.88;;;11.01;100.00
46682;BME280;34101;53.430;-2.224;2022-12-24T11:56:11;155335.01;;;11.50;100.00
46682;BME280;34101;53.430;-2.224;2022-12-24T11:58:43;155363.89;;;11.61;100.00
46682;BME280;34101;53.430;-2.224;2022-12-24T12:01:22;155350.30;;;11.56;100.00
46682;BME280;34101;53.430;-2.224;2022-12-24T12:03:53;155302.49;;;11.37;100.00
46682;BME280;34101;53.430;-2.224;2022-12-24T12:06:27;155316.48;;;11.42;100.00
46682;BME280;34101;53.430;-2.224;2022-12-24T12:09:03;155303.30;;;11.37;100.00
46682;BME280;34101;53.430;-2.224;2022-12-24T12:11:33;155295.70;;;11.34;100.00
46682;BME280;34101;53.430;-2.224;2022-12-24T12:14:03;155317.37;;;11.43;100.00
46682;BME280;34101;53.430;-2.224;2022-12-24T12:16:38;155239.97;;;11.11;100.00
46682;BME280;34101;53.430;-2.224;2022-12-24T12:19:11;155284.05;;;11.29;100.00
46682;BME280;34101;53.430;-2.224;2022-12-24T12:21:42;155285.26;;;11.30;100.00
46682;BME280;34101;53.430;-2.224;2022-12-24T12:24:17;155343.10;;;11.53;100.00
46682;BME280;34101;53.430;-2.224;2022-12-24T12:26:47;155340.99;;;11.52;100.00
46682;BME280;34101;53.430;-2.224;2022-12-24T12:29:27;155251.46;;;11.16;100.00
46682;BME280;34101;53.430;-2.224;2022-12-24T12:32:03;155262.21;;;11.20;100.00
46682;BME280;34101;53.430;-2.224;2022-12-24T12:34:37;155278.23;;;11.27;100.00
46682;BME280;34101;53.430;-2.224;2022-12-24T12:37:11;155275.48;;;11.26;100.00
46682;BME280;34101;53.430;-2.224;2022-12-24T12:39:39;155322.87;;;11.45;100.00
46682;BME280;34101;53.430;-2.224;2022-12-24T12:42:14;155266.82;;;11.22;100.00
46682;BME280;34101;53.430;-2.224;2022-12-24T12:44:55;155280.33;;;11.28;100.00
46682;BME280;34101;53.430;-2.224;2022-12-24T12:47:36;155247.74;;;11.15;100.00
46682;BME280;34101;53.430;-2.224;2022-12-24T12:50:15;155239.25;;;11.11;100.00
46682;BME280;34101;53.430;-2.224;2022-12-24T12:52:55;155240.54;;;11.12;100.00